Bethalto, IL (62010)

9:15 AM CST on February 08, 2016 (GMT -0600)
Rosewood Heights | | Change Station
CLOSE
Current Station
Personal Weather Station
Location: East Alton, IL
Elevation: 545 ft
Nearby Weather Stations

Elev 545 ft 38.88 °N, 90.07 °W | Updated 9 seconds ago

Light Snow
Light Snow
27.3 °F
Feels Like 27 °F
N
2.0
Wind Variable Wind from NW
Gusts 13.0 mph

Today
High -- | Low -- °F
--% Chance of Precip.
Yesterday
High -- | Low -- °F
Precip. -- in
Pressure 29.83 in
Visibility 1.5 miles
Clouds Overcast 1500 ft
Windchill 27 °F
Dew Point 22 °F
Humidity 80%
Rainfall 0.00 in
Snow Depth Not available.
7:00 AM 5:29 PM
New Moon, 0% visible
METAR KALN 081445Z 29015G21KT 1 1/2SM -SN OVC015 M03/M05 A2983
Pressure 29.83 in
Visibility 1.5 miles
Clouds Overcast 1500 ft
Windchill 27 °F
Dew Point 22 °F
Humidity 80%
Rainfall 0.00 in
Snow Depth Not available.
7:00 AM 5:29 PM
New Moon, 0% visible
METAR KALN 081445Z 29015G21KT 1 1/2SM -SN OVC015 M03/M05 A2983

10-Day Weather Forecast

Almanac

Astronomy

Feb. 08, 2016 Rise Set
Actual Time
Civil Twilight
Nautical Twilight
Astronomical Twilight
Moon
Length of Visible Light
Length of Day
Tomorrow will be .
, % of the Moon is Illuminated

Today's Extremes

State Highs State Lows

Community

WunderPhotos

Upload Photos

1,891,450 photos uploaded!

WunderBlog® & News

Nearby

Air Quality

  Air Quality AQ Index Pollutant
Not available.

Snow Depth

Station Depth Elevation

Earthquake Activity

City Distance Mag. Time & Date
Minimum magnitude displayed is 2.5.

Coastal Water Temperatures

Place Temperature

Stations

Nearby Weather Stations

Station Location Temp. Windchill Dew Point Humidity Wind Precip. Elev Updated Type
                   

Watches & Warnings

There are currently no watches in effect.